sensor_id;sensor_type;location;lat;lon;timestamp;temperature;humidity
20829;DHT22;10575;50.124;8.582;2023-09-07T00:58:23;19.50;99.90
20829;DHT22;10575;50.124;8.582;2023-09-07T01:00:49;19.50;99.90
20829;DHT22;10575;50.124;8.582;2023-09-07T01:03:14;19.50;99.90
20829;DHT22;10575;50.124;8.582;2023-09-07T01:05:59;19.40;99.90
20829;DHT22;10575;50.124;8.582;2023-09-07T01:08:32;19.30;99.90
20829;DHT22;10575;50.124;8.582;2023-09-07T01:11:00;19.20;99.90
20829;DHT22;10575;50.124;8.582;2023-09-07T01:13:26;19.20;99.90
20829;DHT22;10575;50.124;8.582;2023-09-07T01:21:03;19.20;99.90
20829;DHT22;10575;50.124;8.582;2023-09-07T01:23:30;19.10;99.90
20829;DHT22;10575;50.124;8.582;2023-09-07T01:25:56;18.90;99.90
20829;DHT22;10575;50.124;8.582;2023-09-07T01:28:21;18.90;99.90
20829;DHT22;10575;50.124;8.582;2023-09-07T02:17:23;18.50;99.90
20829;DHT22;10575;50.124;8.582;2023-09-07T02:19:49;18.30;99.90
20829;DHT22;10575;50.124;8.582;2023-09-07T02:22:15;18.30;99.90
20829;DHT22;10575;50.124;8.582;2023-09-07T02:24:41;18.20;99.90
20829;DHT22;10575;50.124;8.582;2023-09-07T02:27:07;18.10;99.90
20829;DHT22;10575;50.124;8.582;2023-09-07T02:29:32;18.10;99.90
20829;DHT22;10575;50.124;8.582;2023-09-07T02:31:58;17.90;99.90
20829;DHT22;10575;50.124;8.582;2023-09-07T02:34:24;18.00;99.90
20829;DHT22;10575;50.124;8.582;2023-09-07T03:13:05;17.50;99.90
20829;DHT22;10575;50.124;8.582;2023-09-07T04:22:48;17.00;99.90
20829;DHT22;10575;50.124;8.582;2023-09-07T04:25:13;17.00;99.90
20829;DHT22;10575;50.124;8.582;2023-09-07T04:27:39;17.00;99.90
20829;DHT22;10575;50.124;8.582;2023-09-07T04:30:05;17.00;99.90
20829;DHT22;10575;50.124;8.582;2023-09-07T04:32:31;17.00;99.90
20829;DHT22;10575;50.124;8.582;2023-09-07T04:34:57;16.90;99.90
20829;DHT22;10575;50.124;8.582;2023-09-07T04:37:24;16.90;99.90
20829;DHT22;10575;50.124;8.582;2023-09-07T04:39:51;16.80;99.90
20829;DHT22;10575;50.124;8.582;2023-09-07T04:55:15;16.80;99.90
20829;DHT22;10575;50.124;8.582;2023-09-07T04:57:41;16.60;99.90
20829;DHT22;10575;50.124;8.582;2023-09-07T05:00:07;16.60;99.90
20829;DHT22;10575;50.124;8.582;2023-09-07T05:02:34;16.70;99.90
20829;DHT22;10575;50.124;8.582;2023-09-07T05:05:06;16.70;99.90
20829;DHT22;10575;50.124;8.582;2023-09-07T05:07:32;16.60;99.90
20829;DHT22;10575;50.124;8.582;2023-09-07T05:09:57;16.60;99.90
20829;DHT22;10575;50.124;8.582;2023-09-07T05:12:23;16.70;99.90
20829;DHT22;10575;50.124;8.582;2023-09-07T05:14:49;16.70;99.90
20829;DHT22;10575;50.124;8.582;2023-09-07T05:17:15;16.60;99.90
20829;DHT22;10575;50.124;8.582;2023-09-07T05:19:40;16.70;99.90
20829;DHT22;10575;50.124;8.582;2023-09-07T05:22:06;16.70;99.90
20829;DHT22;10575;50.124;8.582;2023-09-07T05:34:53;17.00;99.90
20829;DHT22;10575;50.124;8.582;2023-09-07T05:37:19;17.10;99.90
20829;DHT22;10575;50.124;8.582;2023-09-07T05:39:45;17.10;99.90
20829;DHT22;10575;50.124;8.582;2023-09-07T05:42:10;17.20;99.90
20829;DHT22;10575;50.124;8.582;2023-09-07T05:44:38;17.30;99.90
20829;DHT22;10575;50.124;8.582;2023-09-07T06:55:11;27.80;99.90
20829;DHT22;10575;50.124;8.582;2023-09-07T06:57:36;29.90;99.90
20829;DHT22;10575;50.124;8.582;2023-09-07T07:00:05;30.70;99.90
20829;DHT22;10575;50.124;8.582;2023-09-07T07:02:31;32.00;98.90
20829;DHT22;10575;50.124;8.582;2023-09-07T07:04:56;32.30;96.80
20829;DHT22;10575;50.124;8.582;2023-09-07T07:07:22;33.40;94.60
20829;DHT22;10575;50.124;8.582;2023-09-07T07:09:47;33.00;93.80
20829;DHT22;10575;50.124;8.582;2023-09-07T07:12:13;32.10;94.30
20829;DHT22;10575;50.124;8.582;2023-09-07T07:14:39;30.70;96.60
20829;DHT22;10575;50.124;8.582;2023-09-07T07:17:07;30.50;96.30
20829;DHT22;10575;50.124;8.582;2023-09-07T07:19:32;29.30;98.80
20829;DHT22;10575;50.124;8.582;2023-09-07T07:22:00;29.60;98.20
20829;DHT22;10575;50.124;8.582;2023-09-07T07:24:26;30.00;99.10
20829;DHT22;10575;50.124;8.582;2023-09-07T07:26:52;30.70;96.90
20829;DHT22;10575;50.124;8.582;2023-09-07T07:29:17;31.40;95.60
20829;DHT22;10575;50.124;8.582;2023-09-07T07:31:43;32.30;93.60
20829;DHT22;10575;50.124;8.582;2023-09-07T07:34:08;33.70;91.70
20829;DHT22;10575;50.124;8.582;2023-09-07T07:36:34;33.50;90.60
20829;DHT22;10575;50.124;8.582;2023-09-07T07:38:59;33.10;90.80
20829;DHT22;10575;50.124;8.582;2023-09-07T07:41:25;32.60;91.90
20829;DHT22;10575;50.124;8.582;2023-09-07T07:43:51;32.90;91.40
20829;DHT22;10575;50.124;8.582;2023-09-07T07:46:16;33.10;90.50
20829;DHT22;10575;50.124;8.582;2023-09-07T07:48:42;33.70;90.10
20829;DHT22;10575;50.124;8.582;2023-09-07T07:51:07;33.70;87.40
20829;DHT22;10575;50.124;8.582;2023-09-07T07:53:34;35.10;86.70
20829;DHT22;10575;50.124;8.582;2023-09-07T07:56:00;36.70;77.00
20829;DHT22;10575;50.124;8.582;2023-09-07T07:58:25;37.10;76.90
20829;DHT22;10575;50.124;8.582;2023-09-07T08:00:51;38.40;70.20
20829;DHT22;10575;50.124;8.582;2023-09-07T08:03:17;39.90;61.70
20829;DHT22;10575;50.124;8.582;2023-09-07T08:05:43;41.40;57.50
20829;DHT22;10575;50.124;8.582;2023-09-07T08:08:09;43.30;52.00
20829;DHT22;10575;50.124;8.582;2023-09-07T08:10:36;44.10;48.20
20829;DHT22;10575;50.124;8.582;2023-09-07T08:13:03;44.10;48.00
20829;DHT22;10575;50.124;8.582;2023-09-07T08:15:29;43.50;46.00
20829;DHT22;10575;50.124;8.582;2023-09-07T08:17:55;44.10;44.50
20829;DHT22;10575;50.124;8.582;2023-09-07T08:20:21;44.90;42.20
20829;DHT22;10575;50.124;8.582;2023-09-07T08:22:47;47.10;39.50
20829;DHT22;10575;50.124;8.582;2023-09-07T08:25:13;48.30;36.70
20829;DHT22;10575;50.124;8.582;2023-09-07T08:27:40;48.10;35.90
20829;DHT22;10575;50.124;8.582;2023-09-07T08:30:13;47.30;35.90
20829;DHT22;10575;50.124;8.582;2023-09-07T08:32:41;47.90;35.10
20829;DHT22;10575;50.124;8.582;2023-09-07T08:35:09;48.70;33.20
20829;DHT22;10575;50.124;8.582;2023-09-07T08:37:35;47.30;33.00
20829;DHT22;10575;50.124;8.582;2023-09-07T08:40:00;46.00;35.40
20829;DHT22;10575;50.124;8.582;2023-09-07T08:42:26;46.60;34.90
20829;DHT22;10575;50.124;8.582;2023-09-07T08:44:54;47.00;35.40
20829;DHT22;10575;50.124;8.582;2023-09-07T08:47:24;47.40;33.20
20829;DHT22;10575;50.124;8.582;2023-09-07T08:49:49;47.80;32.50
20829;DHT22;10575;50.124;8.582;2023-09-07T08:52:16;46.80;33.50
20829;DHT22;10575;50.124;8.582;2023-09-07T08:54:43;46.10;32.90
20829;DHT22;10575;50.124;8.582;2023-09-07T08:57:11;46.00;34.00
20829;DHT22;10575;50.124;8.582;2023-09-07T08:59:37;46.10;34.70
20829;DHT22;10575;50.124;8.582;2023-09-07T09:02:02;47.70;33.20
20829;DHT22;10575;50.124;8.582;2023-09-07T09:04:30;47.80;32.30
20829;DHT22;10575;50.124;8.582;2023-09-07T09:06:56;47.80;32.40
20829;DHT22;10575;50.124;8.582;2023-09-07T09:09:24;46.90;32.80
20829;DHT22;10575;50.124;8.582;2023-09-07T09:11:50;47.30;33.20
20829;DHT22;10575;50.124;8.582;2023-09-07T09:14:20;47.20;32.70
20829;DHT22;10575;50.124;8.582;2023-09-07T09:16:51;48.20;32.50
20829;DHT22;10575;50.124;8.582;2023-09-07T09:19:17;49.00;30.60
20829;DHT22;10575;50.124;8.582;2023-09-07T09:21:46;49.20;30.00
20829;DHT22;10575;50.124;8.582;2023-09-07T09:24:12;49.70;30.20
20829;DHT22;10575;50.124;8.582;2023-09-07T09:26:38;47.70;30.90
20829;DHT22;10575;50.124;8.582;2023-09-07T09:29:03;43.30;34.90
20829;DHT22;10575;50.124;8.582;2023-09-07T09:31:29;39.70;40.10
20829;DHT22;10575;50.124;8.582;2023-09-07T09:33:55;35.80;47.10
20829;DHT22;10575;50.124;8.582;2023-09-07T09:36:22;34.00;49.80
20829;DHT22;10575;50.124;8.582;2023-09-07T09:38:51;32.50;54.40
20829;DHT22;10575;50.124;8.582;2023-09-07T09:41:19;31.30;56.60
20829;DHT22;10575;50.124;8.582;2023-09-07T09:43:46;30.50;60.50
20829;DHT22;10575;50.124;8.582;2023-09-07T09:46:14;29.90;61.20
20829;DHT22;10575;50.124;8.582;2023-09-07T09:48:42;29.90;60.60
20829;DHT22;10575;50.124;8.582;2023-09-07T09:51:08;30.20;66.20
20829;DHT22;10575;50.124;8.582;2023-09-07T09:53:33;29.60;64.60
20829;DHT22;10575;50.124;8.582;2023-09-07T09:56:00;29.30;66.40
20829;DHT22;10575;50.124;8.582;2023-09-07T09:58:26;29.50;66.00
20829;DHT22;10575;50.124;8.582;2023-09-07T10:00:54;29.70;69.30
20829;DHT22;10575;50.124;8.582;2023-09-07T10:03:33;29.30;66.80
20829;DHT22;10575;50.124;8.582;2023-09-07T10:09:01;28.60;70.80
20829;DHT22;10575;50.124;8.582;2023-09-07T10:11:31;28.70;71.80
20829;DHT22;10575;50.124;8.582;2023-09-07T10:13:58;28.90;71.10
20829;DHT22;10575;50.124;8.582;2023-09-07T10:16:24;28.80;74.10
20829;DHT22;10575;50.124;8.582;2023-09-07T10:18:49;28.60;76.60
20829;DHT22;10575;50.124;8.582;2023-09-07T10:21:15;28.60;73.90
20829;DHT22;10575;50.124;8.582;2023-09-07T10:23:42;28.80;75.60
20829;DHT22;10575;50.124;8.582;2023-09-07T10:26:13;28.80;72.40
20829;DHT22;10575;50.124;8.582;2023-09-07T10:28:39;28.60;75.50
20829;DHT22;10575;50.124;8.582;2023-09-07T10:31:15;28.80;72.50
20829;DHT22;10575;50.124;8.582;2023-09-07T10:33:41;29.10;72.50
20829;DHT22;10575;50.124;8.582;2023-09-07T10:36:07;29.20;71.50
20829;DHT22;10575;50.124;8.582;2023-09-07T10:38:34;29.10;73.20
20829;DHT22;10575;50.124;8.582;2023-09-07T10:41:02;29.00;74.60
20829;DHT22;10575;50.124;8.582;2023-09-07T10:43:29;28.60;74.80
20829;DHT22;10575;50.124;8.582;2023-09-07T10:45:55;28.50;72.90
20829;DHT22;10575;50.124;8.582;2023-09-07T10:48:24;28.30;77.80
20829;DHT22;10575;50.124;8.582;2023-09-07T10:50:51;28.30;76.10
20829;DHT22;10575;50.124;8.582;2023-09-07T10:53:25;28.30;77.20
20829;DHT22;10575;50.124;8.582;2023-09-07T10:55:52;28.30;76.20
20829;DHT22;10575;50.124;8.582;2023-09-07T10:58:35;28.20;78.00
20829;DHT22;10575;50.124;8.582;2023-09-07T11:01:01;28.30;79.00
20829;DHT22;10575;50.124;8.582;2023-09-07T11:03:30;28.30;77.90
20829;DHT22;10575;50.124;8.582;2023-09-07T11:06:06;28.40;77.50
20829;DHT22;10575;50.124;8.582;2023-09-07T11:08:33;28.40;78.70
20829;DHT22;10575;50.124;8.582;2023-09-07T11:10:59;28.50;77.20
20829;DHT22;10575;50.124;8.582;2023-09-07T11:13:25;28.60;78.50
20829;DHT22;10575;50.124;8.582;2023-09-07T11:15:56;28.80;74.90
20829;DHT22;10575;50.124;8.582;2023-09-07T11:18:23;29.00;74.60
20829;DHT22;10575;50.124;8.582;2023-09-07T11:20:50;28.80;74.00
20829;DHT22;10575;50.124;8.582;2023-09-07T11:23:17;28.60;75.70
20829;DHT22;10575;50.124;8.582;2023-09-07T11:25:43;28.50;79.10
20829;DHT22;10575;50.124;8.582;2023-09-07T11:28:09;28.40;75.00
20829;DHT22;10575;50.124;8.582;2023-09-07T11:30:35;28.30;76.20
20829;DHT22;10575;50.124;8.582;2023-09-07T11:33:02;28.30;77.00
20829;DHT22;10575;50.124;8.582;2023-09-07T11:35:29;28.30;76.40
20829;DHT22;10575;50.124;8.582;2023-09-07T11:37:55;28.30;78.20
20829;DHT22;10575;50.124;8.582;2023-09-07T11:40:20;28.20;75.40
20829;DHT22;10575;50.124;8.582;2023-09-07T11:42:46;28.10;78.00
20829;DHT22;10575;50.124;8.582;2023-09-07T11:45:11;28.00;77.60
20829;DHT22;10575;50.124;8.582;2023-09-07T11:47:38;27.90;76.40
20829;DHT22;10575;50.124;8.582;2023-09-07T11:50:05;28.00;78.30
20829;DHT22;10575;50.124;8.582;2023-09-07T11:52:32;28.20;81.80
20829;DHT22;10575;50.124;8.582;2023-09-07T11:54:57;28.30;76.40
20829;DHT22;10575;50.124;8.582;2023-09-07T11:57:23;28.20;77.20
20829;DHT22;10575;50.124;8.582;2023-09-07T11:59:48;28.00;77.30
20829;DHT22;10575;50.124;8.582;2023-09-07T12:02:14;28.10;79.10
20829;DHT22;10575;50.124;8.582;2023-09-07T12:04:41;28.00;76.70
20829;DHT22;10575;50.124;8.582;2023-09-07T12:07:07;28.20;80.10
20829;DHT22;10575;50.124;8.582;2023-09-07T12:09:33;28.10;77.00
20829;DHT22;10575;50.124;8.582;2023-09-07T12:11:58;28.20;79.30
20829;DHT22;10575;50.124;8.582;2023-09-07T12:14:24;28.30;76.70
20829;DHT22;10575;50.124;8.582;2023-09-07T12:16:49;28.40;77.10
20829;DHT22;10575;50.124;8.582;2023-09-07T12:19:15;28.40;76.20
20829;DHT22;10575;50.124;8.582;2023-09-07T12:21:40;28.40;78.00
20829;DHT22;10575;50.124;8.582;2023-09-07T12:24:07;28.60;77.50
20829;DHT22;10575;50.124;8.582;2023-09-07T12:26:33;28.80;75.80
20829;DHT22;10575;50.124;8.582;2023-09-07T12:28:58;28.90;75.90
20829;DHT22;10575;50.124;8.582;2023-09-07T12:31:25;28.90;73.00
20829;DHT22;10575;50.124;8.582;2023-09-07T12:33:51;28.60;74.80
20829;DHT22;10575;50.124;8.582;2023-09-07T12:36:17;28.50;75.00
20829;DHT22;10575;50.124;8.582;2023-09-07T12:38:42;28.70;74.60
20829;DHT22;10575;50.124;8.582;2023-09-07T12:41:11;28.90;73.50
20829;DHT22;10575;50.124;8.582;2023-09-07T12:43:37;29.00;76.10
20829;DHT22;10575;50.124;8.582;2023-09-07T12:46:02;29.00;73.70
20829;DHT22;10575;50.124;8.582;2023-09-07T12:48:29;29.20;73.80
20829;DHT22;10575;50.124;8.582;2023-09-07T12:50:54;29.10;72.20
20829;DHT22;10575;50.124;8.582;2023-09-07T12:53:21;29.10;70.70
20829;DHT22;10575;50.124;8.582;2023-09-07T12:55:52;29.20;74.20
20829;DHT22;10575;50.124;8.582;2023-09-07T12:58:17;29.10;74.70
20829;DHT22;10575;50.124;8.582;2023-09-07T13:00:43;29.00;76.20
20829;DHT22;10575;50.124;8.582;2023-09-07T13:03:09;29.00;73.40
20829;DHT22;10575;50.124;8.582;2023-09-07T13:05:34;29.10;74.40
20829;DHT22;10575;50.124;8.582;2023-09-07T13:08:01;29.30;72.80
20829;DHT22;10575;50.124;8.582;2023-09-07T13:10:28;29.20;70.10
20829;DHT22;10575;50.124;8.582;2023-09-07T13:12:55;29.20;73.50
20829;DHT22;10575;50.124;8.582;2023-09-07T13:15:20;29.10;72.20
20829;DHT22;10575;50.124;8.582;2023-09-07T13:17:46;29.00;73.40
20829;DHT22;10575;50.124;8.582;2023-09-07T13:20:11;29.10;74.50
20829;DHT22;10575;50.124;8.582;2023-09-07T13:22:37;29.00;72.70
20829;DHT22;10575;50.124;8.582;2023-09-07T13:25:03;29.00;74.50
20829;DHT22;10575;50.124;8.582;2023-09-07T13:27:31;29.00;75.70
20829;DHT22;10575;50.124;8.582;2023-09-07T13:29:56;29.00;76.50
20829;DHT22;10575;50.124;8.582;2023-09-07T13:32:23;29.10;72.10
20829;DHT22;10575;50.124;8.582;2023-09-07T13:34:49;29.10;69.40
20829;DHT22;10575;50.124;8.582;2023-09-07T13:37:18;29.20;70.70
20829;DHT22;10575;50.124;8.582;2023-09-07T13:39:44;29.30;73.40
20829;DHT22;10575;50.124;8.582;2023-09-07T13:42:10;29.40;73.30
20829;DHT22;10575;50.124;8.582;2023-09-07T13:44:36;29.50;71.20
20829;DHT22;10575;50.124;8.582;2023-09-07T13:47:01;29.40;70.20
20829;DHT22;10575;50.124;8.582;2023-09-07T13:49:27;29.50;69.90
20829;DHT22;10575;50.124;8.582;2023-09-07T13:51:53;29.60;70.60
20829;DHT22;10575;50.124;8.582;2023-09-07T13:54:18;29.40;73.20
20829;DHT22;10575;50.124;8.582;2023-09-07T13:56:44;29.50;70.90
20829;DHT22;10575;50.124;8.582;2023-09-07T13:59:12;29.50;70.30
20829;DHT22;10575;50.124;8.582;2023-09-07T14:01:37;29.50;72.00
20829;DHT22;10575;50.124;8.582;2023-09-07T14:04:03;29.50;70.60
20829;DHT22;10575;50.124;8.582;2023-09-07T14:06:30;29.60;69.60
20829;DHT22;10575;50.124;8.582;2023-09-07T14:08:55;29.50;70.20
20829;DHT22;10575;50.124;8.582;2023-09-07T14:11:21;29.40;73.10
20829;DHT22;10575;50.124;8.582;2023-09-07T14:13:48;29.40;72.20
20829;DHT22;10575;50.124;8.582;2023-09-07T14:16:19;29.30;72.70
20829;DHT22;10575;50.124;8.582;2023-09-07T14:18:46;29.30;72.40
20829;DHT22;10575;50.124;8.582;2023-09-07T14:21:16;29.20;72.70
20829;DHT22;10575;50.124;8.582;2023-09-07T14:23:42;29.10;72.90
20829;DHT22;10575;50.124;8.582;2023-09-07T14:26:10;29.10;74.20
20829;DHT22;10575;50.124;8.582;2023-09-07T14:28:36;29.10;74.80
20829;DHT22;10575;50.124;8.582;2023-09-07T14:31:03;29.10;74.10
20829;DHT22;10575;50.124;8.582;2023-09-07T14:33:31;29.20;75.50
20829;DHT22;10575;50.124;8.582;2023-09-07T14:35:57;29.40;73.20
20829;DHT22;10575;50.124;8.582;2023-09-07T14:38:23;29.40;73.20
20829;DHT22;10575;50.124;8.582;2023-09-07T14:40:49;29.40;72.70
20829;DHT22;10575;50.124;8.582;2023-09-07T14:43:16;29.30;73.50
20829;DHT22;10575;50.124;8.582;2023-09-07T14:45:43;29.30;75.00
20829;DHT22;10575;50.124;8.582;2023-09-07T14:48:08;29.20;73.50
20829;DHT22;10575;50.124;8.582;2023-09-07T14:50:34;29.20;73.80
20829;DHT22;10575;50.124;8.582;2023-09-07T14:53:00;29.20;72.70
20829;DHT22;10575;50.124;8.582;2023-09-07T14:55:25;29.30;74.20
20829;DHT22;10575;50.124;8.582;2023-09-07T14:57:51;29.30;74.00
20829;DHT22;10575;50.124;8.582;2023-09-07T15:00:16;29.50;72.00
20829;DHT22;10575;50.124;8.582;2023-09-07T15:02:42;29.40;73.90
20829;DHT22;10575;50.124;8.582;2023-09-07T15:05:07;29.50;73.90
20829;DHT22;10575;50.124;8.582;2023-09-07T15:07:33;29.50;74.60
20829;DHT22;10575;50.124;8.582;2023-09-07T15:09:58;29.40;74.70
20829;DHT22;10575;50.124;8.582;2023-09-07T15:12:24;29.30;74.90
20829;DHT22;10575;50.124;8.582;2023-09-07T15:14:49;29.30;75.30
20829;DHT22;10575;50.124;8.582;2023-09-07T15:17:15;29.30;75.70
20829;DHT22;10575;50.124;8.582;2023-09-07T15:19:44;29.20;75.30
20829;DHT22;10575;50.124;8.582;2023-09-07T15:22:10;29.20;76.30
20829;DHT22;10575;50.124;8.582;2023-09-07T15:24:36;29.20;76.20
20829;DHT22;10575;50.124;8.582;2023-09-07T15:27:09;29.20;77.40
20829;DHT22;10575;50.124;8.582;2023-09-07T15:29:35;29.20;75.80
20829;DHT22;10575;50.124;8.582;2023-09-07T15:32:01;29.20;76.60
20829;DHT22;10575;50.124;8.582;2023-09-07T15:34:26;29.20;75.20
20829;DHT22;10575;50.124;8.582;2023-09-07T15:36:52;29.10;76.30
20829;DHT22;10575;50.124;8.582;2023-09-07T15:39:18;29.00;77.70
20829;DHT22;10575;50.124;8.582;2023-09-07T15:41:43;29.00;76.30
20829;DHT22;10575;50.124;8.582;2023-09-07T15:44:09;29.00;76.30
20829;DHT22;10575;50.124;8.582;2023-09-07T15:46:34;29.00;77.70
20829;DHT22;10575;50.124;8.582;2023-09-07T15:49:00;29.00;76.20
20829;DHT22;10575;50.124;8.582;2023-09-07T15:51:25;29.10;77.00
20829;DHT22;10575;50.124;8.582;2023-09-07T15:53:51;29.10;76.20
20829;DHT22;10575;50.124;8.582;2023-09-07T15:56:17;29.10;76.20
20829;DHT22;10575;50.124;8.582;2023-09-07T15:58:43;29.20;76.20
20829;DHT22;10575;50.124;8.582;2023-09-07T16:01:09;29.30;72.80
20829;DHT22;10575;50.124;8.582;2023-09-07T16:03:35;29.30;68.90
20829;DHT22;10575;50.124;8.582;2023-09-07T16:06:01;29.40;69.10
20829;DHT22;10575;50.124;8.582;2023-09-07T16:08:27;29.40;69.80
20829;DHT22;10575;50.124;8.582;2023-09-07T16:10:57;29.30;68.10
20829;DHT22;10575;50.124;8.582;2023-09-07T16:13:23;29.30;69.40
20829;DHT22;10575;50.124;8.582;2023-09-07T16:15:49;29.20;68.60
20829;DHT22;10575;50.124;8.582;2023-09-07T16:18:14;29.10;70.20
20829;DHT22;10575;50.124;8.582;2023-09-07T16:20:41;29.20;69.10
20829;DHT22;10575;50.124;8.582;2023-09-07T16:23:07;29.20;70.40
20829;DHT22;10575;50.124;8.582;2023-09-07T16:25:35;29.20;69.80
20829;DHT22;10575;50.124;8.582;2023-09-07T16:28:01;29.20;68.70
20829;DHT22;10575;50.124;8.582;2023-09-07T16:30:26;29.20;68.10
20829;DHT22;10575;50.124;8.582;2023-09-07T16:32:53;29.20;67.70
20829;DHT22;10575;50.124;8.582;2023-09-07T16:35:19;29.10;67.50
20829;DHT22;10575;50.124;8.582;2023-09-07T16:37:45;29.20;67.40
20829;DHT22;10575;50.124;8.582;2023-09-07T16:40:11;29.20;67.30
20829;DHT22;10575;50.124;8.582;2023-09-07T16:42:37;29.10;67.20
20829;DHT22;10575;50.124;8.582;2023-09-07T16:45:02;29.10;66.90
20829;DHT22;10575;50.124;8.582;2023-09-07T16:47:28;29.00;66.70
20829;DHT22;10575;50.124;8.582;2023-09-07T16:49:54;29.00;68.40
20829;DHT22;10575;50.124;8.582;2023-09-07T16:52:20;29.00;68.30
20829;DHT22;10575;50.124;8.582;2023-09-07T16:54:45;28.80;70.20
20829;DHT22;10575;50.124;8.582;2023-09-07T16:57:11;28.80;68.60
20829;DHT22;10575;50.124;8.582;2023-09-07T16:59:36;28.80;69.50
20829;DHT22;10575;50.124;8.582;2023-09-07T17:02:02;28.70;69.90
20829;DHT22;10575;50.124;8.582;2023-09-07T17:04:32;28.70;70.20
20829;DHT22;10575;50.124;8.582;2023-09-07T17:06:58;28.60;70.60
20829;DHT22;10575;50.124;8.582;2023-09-07T17:09:31;28.60;70.60
20829;DHT22;10575;50.124;8.582;2023-09-07T17:11:58;28.40;73.60
20829;DHT22;10575;50.124;8.582;2023-09-07T17:14:25;28.30;72.80
20829;DHT22;10575;50.124;8.582;2023-09-07T17:16:51;28.10;74.20
20829;DHT22;10575;50.124;8.582;2023-09-07T17:19:17;28.00;75.30
20829;DHT22;10575;50.124;8.582;2023-09-07T17:21:44;28.00;75.70
20829;DHT22;10575;50.124;8.582;2023-09-07T17:24:11;27.90;77.30
20829;DHT22;10575;50.124;8.582;2023-09-07T17:26:37;27.90;76.30
20829;DHT22;10575;50.124;8.582;2023-09-07T17:29:02;27.80;78.00
20829;DHT22;10575;50.124;8.582;2023-09-07T17:31:28;27.80;77.90
20829;DHT22;10575;50.124;8.582;2023-09-07T17:33:54;27.70;78.70
20829;DHT22;10575;50.124;8.582;2023-09-07T17:36:20;27.60;78.70
20829;DHT22;10575;50.124;8.582;2023-09-07T17:38:46;27.50;80.10
20829;DHT22;10575;50.124;8.582;2023-09-07T17:41:12;27.40;80.20
20829;DHT22;10575;50.124;8.582;2023-09-07T17:43:38;27.30;79.60
20829;DHT22;10575;50.124;8.582;2023-09-07T17:46:05;27.30;81.10
20829;DHT22;10575;50.124;8.582;2023-09-07T17:48:31;27.10;81.80
20829;DHT22;10575;50.124;8.582;2023-09-07T17:50:56;27.00;82.70
20829;DHT22;10575;50.124;8.582;2023-09-07T17:53:23;26.90;81.20
20829;DHT22;10575;50.124;8.582;2023-09-07T17:55:49;26.80;82.70
20829;DHT22;10575;50.124;8.582;2023-09-07T17:58:15;26.80;83.40
20829;DHT22;10575;50.124;8.582;2023-09-07T18:00:40;26.70;84.10
20829;DHT22;10575;50.124;8.582;2023-09-07T18:03:06;26.60;84.50
20829;DHT22;10575;50.124;8.582;2023-09-07T18:05:31;26.50;85.00
20829;DHT22;10575;50.124;8.582;2023-09-07T18:07:57;26.50;85.00
20829;DHT22;10575;50.124;8.582;2023-09-07T18:10:22;26.30;85.60
20829;DHT22;10575;50.124;8.582;2023-09-07T18:12:48;26.30;86.50
20829;DHT22;10575;50.124;8.582;2023-09-07T18:15:14;26.20;87.50
20829;DHT22;10575;50.124;8.582;2023-09-07T18:17:42;26.10;88.20
20829;DHT22;10575;50.124;8.582;2023-09-07T18:20:08;26.00;88.70
20829;DHT22;10575;50.124;8.582;2023-09-07T18:22:37;25.90;89.10
20829;DHT22;10575;50.124;8.582;2023-09-07T18:25:03;25.80;89.90
20829;DHT22;10575;50.124;8.582;2023-09-07T18:27:30;25.70;90.30
20829;DHT22;10575;50.124;8.582;2023-09-07T18:29:55;25.50;90.40
20829;DHT22;10575;50.124;8.582;2023-09-07T18:32:21;25.40;91.00
20829;DHT22;10575;50.124;8.582;2023-09-07T18:34:47;25.20;90.80
20829;DHT22;10575;50.124;8.582;2023-09-07T18:37:12;25.10;90.80
20829;DHT22;10575;50.124;8.582;2023-09-07T18:39:38;25.10;90.70
20829;DHT22;10575;50.124;8.582;2023-09-07T18:42:04;25.00;91.10
20829;DHT22;10575;50.124;8.582;2023-09-07T18:44:29;25.00;91.30
20829;DHT22;10575;50.124;8.582;2023-09-07T18:46:55;25.00;91.50
20829;DHT22;10575;50.124;8.582;2023-09-07T18:49:20;25.00;91.70
20829;DHT22;10575;50.124;8.582;2023-09-07T18:51:46;24.90;91.70
20829;DHT22;10575;50.124;8.582;2023-09-07T18:54:12;24.90;92.10
20829;DHT22;10575;50.124;8.582;2023-09-07T18:56:38;24.80;92.40
20829;DHT22;10575;50.124;8.582;2023-09-07T18:59:04;24.80;92.80
20829;DHT22;10575;50.124;8.582;2023-09-07T19:01:30;24.70;93.30
20829;DHT22;10575;50.124;8.582;2023-09-07T19:04:08;24.60;93.80
20829;DHT22;10575;50.124;8.582;2023-09-07T19:06:38;24.50;94.30
20829;DHT22;10575;50.124;8.582;2023-09-07T19:09:05;24.40;94.30
20829;DHT22;10575;50.124;8.582;2023-09-07T19:11:30;24.40;94.50
20829;DHT22;10575;50.124;8.582;2023-09-07T19:13:56;24.30;94.80
20829;DHT22;10575;50.124;8.582;2023-09-07T19:16:21;24.20;94.90
20829;DHT22;10575;50.124;8.582;2023-09-07T19:18:49;24.20;95.10
20829;DHT22;10575;50.124;8.582;2023-09-07T19:21:14;24.10;95.50
20829;DHT22;10575;50.124;8.582;2023-09-07T19:23:40;24.10;96.30
20829;DHT22;10575;50.124;8.582;2023-09-07T19:26:28;24.00;96.30
20829;DHT22;10575;50.124;8.582;2023-09-07T19:28:55;24.00;96.80
20829;DHT22;10575;50.124;8.582;2023-09-07T19:31:20;24.20;96.70
20829;DHT22;10575;50.124;8.582;2023-09-07T19:33:50;24.20;96.50
20829;DHT22;10575;50.124;8.582;2023-09-07T19:36:18;24.30;96.60
20829;DHT22;10575;50.124;8.582;2023-09-07T21:22:14;22.40;99.90
20829;DHT22;10575;50.124;8.582;2023-09-07T21:24:39;22.30;99.90
20829;DHT22;10575;50.124;8.582;2023-09-07T21:27:05;22.30;99.90
20829;DHT22;10575;50.124;8.582;2023-09-07T21:29:30;22.30;99.90
20829;DHT22;10575;50.124;8.582;2023-09-07T21:31:56;22.30;99.90
20829;DHT22;10575;50.124;8.582;2023-09-07T21:34:22;22.30;99.90
20829;DHT22;10575;50.124;8.582;2023-09-07T21:36:47;22.30;99.90
20829;DHT22;10575;50.124;8.582;2023-09-07T21:39:13;22.30;99.90
20829;DHT22;10575;50.124;8.582;2023-09-07T21:41:50;22.30;99.90
20829;DHT22;10575;50.124;8.582;2023-09-07T21:44:17;22.30;99.90
20829;DHT22;10575;50.124;8.582;2023-09-07T21:46:43;22.30;99.90
20829;DHT22;10575;50.124;8.582;2023-09-07T21:49:09;22.20;99.90
20829;DHT22;10575;50.124;8.582;2023-09-07T21:51:37;22.00;99.90
20829;DHT22;10575;50.124;8.582;2023-09-07T21:54:02;21.90;99.90
20829;DHT22;10575;50.124;8.582;2023-09-07T21:56:28;21.80;99.90
20829;DHT22;10575;50.124;8.582;2023-09-07T21:58:54;21.70;99.90
20829;DHT22;10575;50.124;8.582;2023-09-07T22:21:54;21.50;99.90
20829;DHT22;10575;50.124;8.582;2023-09-07T22:24:19;21.40;99.90
20829;DHT22;10575;50.124;8.582;2023-09-07T22:26:45;21.30;99.90
20829;DHT22;10575;50.124;8.582;2023-09-07T22:31:46;21.10;99.90
20829;DHT22;10575;50.124;8.582;2023-09-07T22:34:12;21.00;99.90
20829;DHT22;10575;50.124;8.582;2023-09-07T22:44:23;21.30;99.90
20829;DHT22;10575;50.124;8.582;2023-09-07T22:49:24;21.50;99.90